Time;durP1;ratioP1;P1;durP2;ratioP2;P2;SDS_P1;SDS_P2;PMS_P1;PMS_P2;Temp;Humidity;BMP_temperature;BMP_pressure;BME280_temperature;BME280_humidity;BME280_pressure;Samples;Min_cycle;Max_cycle;Signal;HPM_P1;HPM_P2
2021/01/21 00:00:44;;;;;;;18.65;5.82;;;26.60;81.50;;;;;;6330959;22;19995;-91
2021/01/21 00:08:15;;;;;;;10.90;4.03;;;26.30;82.70;;;;;;6327706;22;20003;-91
2021/01/21 00:10:42;;;;;;;11.43;3.65;;;26.30;81.40;;;;;;6297299;22;20334;-91
2021/01/21 00:13:11;;;;;;;11.50;4.13;;;26.30;81.40;;;;;;6296124;22;20006;-92
2021/01/21 00:16:40;;;;;;;14.65;3.85;;;26.20;83.10;;;;;;6298419;22;20077;-89
2021/01/21 00:19:39;;;;;;;12.73;3.78;;;26.20;83.50;;;;;;6203366;23;20248;-91
2021/01/21 00:22:07;;;;;;;14.90;4.65;;;26.20;83.10;;;;;;6171429;23;20053;-91
2021/01/21 00:24:46;;;;;;;13.13;3.97;;;26.20;83.70;;;;;;6289995;22;20071;-89
2021/01/21 00:27:44;;;;;;;15.40;4.80;;;26.20;82.80;;;;;;6298028;22;20263;-91
2021/01/21 00:30:56;;;;;;;14.48;4.10;;;26.20;83.20;;;;;;6276964;22;20049;-93
2021/01/21 00:33:24;;;;;;;16.55;5.63;;;26.20;82.80;;;;;;6289254;22;19999;-93
2021/01/21 00:39:06;;;;;;;17.55;7.18;;;26.20;83.10;;;;;;6306476;22;20018;-93
2021/01/21 00:41:52;;;;;;;17.73;8.40;;;26.10;84.20;;;;;;6323474;22;20000;-92
2021/01/21 00:44:19;;;;;;;15.63;7.50;;;26.10;84.40;;;;;;6271744;22;19996;-91
2021/01/21 00:46:47;;;;;;;12.85;6.13;;;26.10;84.60;;;;;;6296867;22;20022;-92
2021/01/21 00:49:21;;;;;;;11.05;4.90;;;26.00;83.70;;;;;;6301403;22;19980;-92
2021/01/21 00:51:50;;;;;;;16.05;5.43;;;26.00;85.20;;;;;;6300744;22;20011;-91
2021/01/21 00:54:21;;;;;;;12.93;4.35;;;25.90;85.10;;;;;;6325999;22;20073;-90
2021/01/21 00:56:48;;;;;;;17.88;4.45;;;25.80;85.10;;;;;;6304100;22;20042;-94
2021/01/21 00:59:24;;;;;;;5.88;3.60;;;25.80;84.90;;;;;;6328907;22;20188;-95
2021/01/21 01:01:56;;;;;;;7.55;4.00;;;25.80;85.90;;;;;;6299632;22;20074;-93
2021/01/21 01:04:29;;;;;;;;;;;25.80;84.80;;;;;;6304044;22;20046;-94
2021/01/21 01:07:05;;;;;;;18.02;9.02;;;25.70;86.00;;;;;;6304752;22;19903;-92
2021/01/21 01:09:46;;;;;;;18.95;8.43;;;25.80;84.50;;;;;;6295826;22;20015;-94
2021/01/21 01:12:39;;;;;;;18.58;6.15;;;25.70;85.70;;;;;;6297568;22;20063;-92
2021/01/21 01:18:30;;;;;;;10.60;5.10;;;25.50;86.10;;;;;;6254277;22;20005;-92
2021/01/21 01:21:06;;;;;;;10.73;5.10;;;25.50;85.90;;;;;;6238247;23;20000;-93
2021/01/21 01:23:58;;;;;;;9.10;4.47;;;25.50;86.30;;;;;;6243358;22;19996;-93
2021/01/21 01:26:25;;;;;;;10.38;4.60;;;25.50;86.00;;;;;;6240556;23;20027;-94
2021/01/21 01:29:53;;;;;;;8.55;4.25;;;25.50;86.10;;;;;;6244412;23;20027;-91
2021/01/21 01:36:00;;;;;;;9.88;5.03;;;25.40;86.50;;;;;;6006731;23;20032;-94
2021/01/21 01:38:31;;;;;;;11.77;4.65;;;25.50;85.10;;;;;;6004740;24;20053;-94
2021/01/21 01:40:58;;;;;;;9.27;4.55;;;25.50;85.60;;;;;;6079338;23;19995;-94
2021/01/21 01:44:17;;;;;;;9.70;4.70;;;25.50;85.10;;;;;;6068276;23;20055;-92
2021/01/21 01:47:07;;;;;;;8.77;4.70;;;25.50;86.20;;;;;;6020530;23;20047;-91
2021/01/21 01:50:01;;;;;;;7.90;4.32;;;25.50;85.90;;;;;;6026670;23;20019;-90
2021/01/21 01:52:29;;;;;;;6.88;4.18;;;25.50;85.80;;;;;;6030298;23;19999;-90
2021/01/21 01:58:52;;;;;;;9.57;3.83;;;25.40;86.10;;;;;;5978151;24;20091;-94
2021/01/21 02:01:29;;;;;;;11.23;4.65;;;25.40;86.40;;;;;;5980416;23;20009;-93
2021/01/21 02:04:02;;;;;;;5.93;4.38;;;25.50;85.40;;;;;;6081959;23;20095;-93
2021/01/21 02:06:34;;;;;;;10.15;3.85;;;25.50;84.70;;;;;;6077768;23;20006;-93
2021/01/21 02:16:11;;;;;;;7.28;4.03;;;25.50;85.20;;;;;;6065724;23;20042;-93
2021/01/21 02:19:45;;;;;;;;;;;;;;;;;;;;;
2021/01/21 02:23:05;;;;;;;10.18;3.53;;;25.50;85.10;;;;;;6090023;23;20003;-92
2021/01/21 02:26:29;;;;;;;7.38;3.47;;;25.60;85.40;;;;;;6006982;23;20262;-92
2021/01/21 02:35:00;;;;;;;8.60;4.50;;;25.50;84.80;;;;;;6351822;22;20021;-93
2021/01/21 02:37:30;;;;;;;5.97;3.30;;;25.50;84.90;;;;;;6328898;22;20022;-91
2021/01/21 02:40:19;;;;;;;7.28;3.50;;;25.50;85.10;;;;;;6330736;22;20017;-92
2021/01/21 02:43:33;;;;;;;9.05;3.40;;;25.40;84.50;;;;;;6338399;22;20054;-93
2021/01/21 02:46:18;;;;;;;15.77;3.88;;;25.40;84.70;;;;;;6288391;22;20007;-93
2021/01/21 02:49:02;;;;;;;5.93;3.53;;;25.40;85.20;;;;;;6363913;22;20053;-94
2021/01/21 02:52:12;;;;;;;4.40;2.90;;;25.30;85.30;;;;;;6336175;22;19999;-95
2021/01/21 02:58:50;;;;;;;6.07;3.28;;;25.20;85.30;;;;;;6208993;23;19997;-94
2021/01/21 03:01:26;;;;;;;10.15;3.55;;;25.20;85.70;;;;;;6318304;22;20006;-94
2021/01/21 03:06:34;;;;;;;6.28;3.92;;;25.10;86.10;;;;;;6329076;22;20061;-92
2021/01/21 03:09:07;;;;;;;9.90;3.97;;;25.10;86.30;;;;;;6363102;22;20011;-87
2021/01/21 03:11:40;;;;;;;6.15;4.00;;;25.00;86.20;;;;;;6338650;22;19999;-88
2021/01/21 03:14:10;;;;;;;4.82;2.90;;;25.00;86.60;;;;;;6284487;22;19999;-90
2021/01/21 03:16:46;;;;;;;11.30;5.18;;;25.00;86.30;;;;;;6360908;22;20010;-92
2021/01/21 03:19:17;;;;;;;7.05;5.10;;;24.90;86.30;;;;;;6362685;22;20022;-87
2021/01/21 03:21:53;;;;;;;11.98;6.82;;;24.90;86.00;;;;;;6335276;22;20275;-90
2021/01/21 03:25:12;;;;;;;14.20;10.23;;;24.90;86.30;;;;;;6308037;22;20050;-90
2021/01/21 03:27:41;;;;;;;13.75;10.10;;;24.90;86.70;;;;;;6338673;22;20015;-88
2021/01/21 03:30:21;;;;;;;13.10;7.43;;;24.90;86.40;;;;;;6361866;22;20030;-88
2021/01/21 03:32:51;;;;;;;9.45;5.57;;;24.90;86.90;;;;;;6364616;22;20002;-89
2021/01/21 03:35:37;;;;;;;5.68;3.65;;;24.80;86.40;;;;;;6364128;22;20046;-87
2021/01/21 03:38:09;;;;;;;6.77;4.97;;;24.90;86.60;;;;;;6360438;22;19999;-89
2021/01/21 03:40:38;;;;;;;7.15;3.90;;;24.70;87.10;;;;;;6361167;22;20040;-88
2021/01/21 03:43:04;;;;;;;5.97;3.63;;;24.70;87.10;;;;;;6335341;22;20024;-91
2021/01/21 03:45:48;;;;;;;7.28;3.67;;;24.70;87.10;;;;;;6365372;22;19987;-88
2021/01/21 03:48:19;;;;;;;7.55;3.80;;;24.70;87.60;;;;;;6327717;22;20034;-89
2021/01/21 03:50:51;;;;;;;9.40;4.00;;;24.70;87.30;;;;;;6295715;22;20026;-90
2021/01/21 03:53:19;;;;;;;13.38;4.20;;;24.70;87.30;;;;;;6324629;22;19992;-91
2021/01/21 03:56:01;;;;;;;7.20;4.20;;;24.70;86.70;;;;;;6326882;22;20019;-91
2021/01/21 03:58:29;;;;;;;10.77;4.30;;;24.60;87.70;;;;;;6330918;22;20031;-91
2021/01/21 04:01:32;;;;;;;8.75;3.67;;;24.60;88.40;;;;;;6331574;22;20070;-94
2021/01/21 04:04:02;;;;;;;9.40;3.22;;;24.40;88.30;;;;;;6327983;22;20018;-92
2021/01/21 04:06:29;;;;;;;4.65;3.58;;;24.50;88.20;;;;;;6330340;22;20037;-91
2021/01/21 04:08:56;;;;;;;9.75;3.92;;;24.50;88.50;;;;;;6328420;22;20014;-93
2021/01/21 04:11:24;;;;;;;5.38;3.40;;;24.40;88.00;;;;;;6330934;22;20003;-88
2021/01/21 04:13:58;;;;;;;6.07;3.50;;;24.40;88.30;;;;;;6303170;22;20021;-90
2021/01/21 04:16:27;;;;;;;7.55;3.70;;;24.40;88.40;;;;;;6326082;22;20047;-89
2021/01/21 04:18:57;;;;;;;5.32;3.70;;;24.40;88.30;;;;;;6331376;22;19995;-93
2021/01/21 04:21:23;;;;;;;9.88;4.05;;;24.40;88.30;;;;;;6330264;22;20225;-91
2021/01/21 04:23:58;;;;;;;5.88;3.70;;;24.40;88.70;;;;;;6331206;22;20017;-95
2021/01/21 04:26:26;;;;;;;6.13;4.30;;;24.40;89.00;;;;;;6322646;22;20040;-90
2021/01/21 04:28:53;;;;;;;7.55;3.97;;;24.30;88.90;;;;;;6360368;22;20034;-90
2021/01/21 04:31:20;;;;;;;6.38;3.70;;;24.30;89.20;;;;;;6366308;22;19994;-88
2021/01/21 04:33:46;;;;;;;7.57;3.83;;;24.30;89.20;;;;;;6364007;22;20062;-90
2021/01/21 04:36:13;;;;;;;6.32;3.85;;;24.30;89.10;;;;;;6360791;22;19994;-94
2021/01/21 04:38:44;;;;;;;6.80;3.58;;;24.30;88.70;;;;;;6361839;22;20037;-93
2021/01/21 04:41:12;;;;;;;6.90;4.40;;;24.30;89.10;;;;;;6359099;22;19995;-91
2021/01/21 04:43:39;;;;;;;6.85;3.88;;;24.20;88.90;;;;;;6358213;22;20001;-89
2021/01/21 04:46:09;;;;;;;6.40;3.50;;;24.20;89.20;;;;;;6360457;22;20006;-92
2021/01/21 04:48:41;;;;;;;5.68;3.70;;;24.20;89.10;;;;;;6357885;22;19999;-90
2021/01/21 04:51:09;;;;;;;6.30;3.63;;;24.20;89.00;;;;;;6359025;22;20172;-86
2021/01/21 04:53:45;;;;;;;4.20;3.20;;;24.20;89.20;;;;;;6360688;22;19990;-90
2021/01/21 04:56:23;;;;;;;4.50;3.40;;;24.10;89.10;;;;;;6353450;22;20010;-91
2021/01/21 04:58:55;;;;;;;5.40;3.63;;;24.10;88.70;;;;;;6354158;22;20034;-92
2021/01/21 05:01:21;;;;;;;6.88;3.50;;;24.20;88.20;;;;;;6354536;22;20022;-90
2021/01/21 05:03:49;;;;;;;6.43;3.00;;;24.20;88.60;;;;;;6355258;22;20021;-90
2021/01/21 05:06:15;;;;;;;5.85;3.60;;;24.20;88.40;;;;;;6357634;22;19991;-91
2021/01/21 05:08:42;;;;;;;5.28;3.33;;;24.10;88.20;;;;;;6357455;22;20003;-89
2021/01/21 05:11:09;;;;;;;6.97;3.20;;;24.10;88.30;;;;;;6360190;22;19991;-91
2021/01/21 05:13:35;;;;;;;6.40;3.60;;;24.10;88.30;;;;;;6356962;22;20005;-92
2021/01/21 05:16:04;;;;;;;5.53;3.22;;;24.10;88.10;;;;;;6357610;22;19999;-93
2021/01/21 05:18:38;;;;;;;6.88;3.55;;;24.10;88.30;;;;;;6352039;22;20029;-92
2021/01/21 05:21:07;;;;;;;5.60;3.13;;;24.10;88.90;;;;;;6352041;22;20002;-91
2021/01/21 05:23:33;;;;;;;6.57;2.80;;;24.10;89.10;;;;;;6354584;22;19991;-92
2021/01/21 05:26:00;;;;;;;6.45;3.25;;;24.10;88.20;;;;;;6353960;22;20046;-91
2021/01/21 05:28:28;;;;;;;5.68;3.20;;;24.10;88.70;;;;;;6350346;22;20038;-92
2021/01/21 05:30:59;;;;;;;4.82;2.75;;;24.10;88.70;;;;;;6348896;22;19990;-91
2021/01/21 05:33:26;;;;;;;8.00;3.15;;;24.00;89.10;;;;;;6351177;22;20186;-91
2021/01/21 05:35:53;;;;;;;9.40;3.25;;;24.00;88.70;;;;;;6351527;22;20037;-92
2021/01/21 05:38:21;;;;;;;9.82;3.30;;;24.00;89.00;;;;;;6376876;22;20179;-92
2021/01/21 05:40:48;;;;;;;5.30;3.50;;;24.00;88.80;;;;;;6352031;22;20033;-91
2021/01/21 05:43:15;;;;;;;6.50;3.38;;;24.00;88.40;;;;;;6351599;22;19999;-91
2021/01/21 05:45:46;;;;;;;7.93;3.17;;;24.00;88.40;;;;;;6350840;22;19991;-90
2021/01/21 05:48:13;;;;;;;7.50;3.17;;;24.00;89.20;;;;;;6353260;22;20168;-91
2021/01/21 05:50:40;;;;;;;5.80;3.50;;;24.00;89.00;;;;;;6351172;22;19994;-91
2021/01/21 05:53:08;;;;;;;6.07;3.85;;;24.00;89.10;;;;;;6353909;22;19994;-91
2021/01/21 05:55:40;;;;;;;12.23;3.80;;;23.90;89.90;;;;;;6351664;22;19991;-91
2021/01/21 05:58:07;;;;;;;6.07;3.83;;;23.80;90.00;;;;;;6353207;22;20002;-91
2021/01/21 06:00:34;;;;;;;5.85;3.30;;;23.80;90.00;;;;;;6351649;22;19997;-90
2021/01/21 06:03:01;;;;;;;8.35;3.60;;;23.80;90.00;;;;;;6352707;22;19991;-91
2021/01/21 06:05:28;;;;;;;6.78;3.65;;;23.80;90.10;;;;;;6352369;22;19990;-92
2021/01/21 06:07:54;;;;;;;7.40;3.63;;;23.70;90.40;;;;;;6350758;22;20058;-90
2021/01/21 06:10:22;;;;;;;4.38;3.00;;;23.70;90.40;;;;;;6350007;22;19995;-92
2021/01/21 06:12:53;;;;;;;12.52;3.20;;;23.70;90.50;;;;;;6350934;22;20186;-92
2021/01/21 06:15:20;;;;;;;5.15;3.42;;;23.70;90.60;;;;;;6350880;22;20002;-90
2021/01/21 06:17:51;;;;;;;8.38;3.03;;;23.70;90.40;;;;;;6351172;22;20003;-92
2021/01/21 06:20:18;;;;;;;8.95;3.33;;;23.70;90.40;;;;;;6354665;22;19991;-93
2021/01/21 06:22:46;;;;;;;5.82;3.08;;;23.70;90.10;;;;;;6350271;22;19995;-91
2021/01/21 06:25:19;;;;;;;6.90;3.60;;;23.70;90.10;;;;;;6352248;22;19983;-91
2021/01/21 06:27:47;;;;;;;4.20;3.25;;;23.70;90.00;;;;;;6349799;22;20133;-91
2021/01/21 06:30:18;;;;;;;5.63;3.55;;;23.70;89.50;;;;;;6351022;22;20023;-92
2021/01/21 06:33:04;;;;;;;6.82;3.30;;;23.70;89.30;;;;;;6351069;22;20055;-91
2021/01/21 06:35:50;;;;;;;8.23;3.33;;;23.70;88.90;;;;;;6352667;22;20009;-91
2021/01/21 06:38:20;;;;;;;8.00;3.25;;;23.60;88.50;;;;;;6351341;22;20010;-91
2021/01/21 06:41:01;;;;;;;8.30;3.75;;;23.60;88.10;;;;;;6350923;22;19997;-90
2021/01/21 06:43:35;;;;;;;7.63;3.42;;;23.70;87.50;;;;;;6352757;22;20037;-92
2021/01/21 06:46:03;;;;;;;8.40;4.43;;;23.70;87.10;;;;;;6350125;22;20305;-91
2021/01/21 06:48:30;;;;;;;7.72;4.05;;;23.60;87.30;;;;;;6350942;22;20232;-91
2021/01/21 06:50:57;;;;;;;7.88;3.50;;;23.70;87.30;;;;;;6352062;22;19998;-90
2021/01/21 06:53:25;;;;;;;7.60;3.53;;;23.70;86.60;;;;;;6351938;22;20029;-92
2021/01/21 06:55:54;;;;;;;5.82;3.80;;;23.70;86.70;;;;;;6351736;22;19998;-92
2021/01/21 06:58:45;;;;;;;8.57;3.80;;;23.60;86.40;;;;;;6353676;22;19999;-91
2021/01/21 07:01:31;;;;;;;8.15;3.83;;;23.60;86.60;;;;;;6353201;22;19998;-91
2021/01/21 07:04:18;;;;;;;5.63;3.83;;;23.60;87.60;;;;;;6352566;22;20187;-91
2021/01/21 07:06:54;;;;;;;6.30;4.30;;;23.60;86.40;;;;;;6353150;22;19991;-91
2021/01/21 07:09:24;;;;;;;6.88;4.00;;;23.50;87.80;;;;;;6355189;22;20005;-93
2021/01/21 07:11:55;;;;;;;6.78;4.00;;;23.50;88.50;;;;;;6326015;22;20033;-91
2021/01/21 07:14:23;;;;;;;6.55;3.47;;;23.50;88.70;;;;;;6350871;22;19995;-92
2021/01/21 07:17:01;;;;;;;7.38;4.18;;;23.50;87.70;;;;;;6351209;22;20003;-90
2021/01/21 07:19:35;;;;;;;5.70;3.88;;;23.50;88.40;;;;;;6350763;22;19998;-93
2021/01/21 07:22:21;;;;;;;6.25;4.28;;;23.50;87.70;;;;;;6349400;22;20047;-92
2021/01/21 07:25:02;;;;;;;8.77;4.28;;;23.50;87.90;;;;;;6351272;22;20038;-89
2021/01/21 07:27:31;;;;;;;8.63;4.00;;;23.50;88.10;;;;;;6349338;22;20010;-91
2021/01/21 07:30:23;;;;;;;5.60;4.15;;;23.40;88.00;;;;;;6350543;22;20001;-91
2021/01/21 07:33:10;;;;;;;6.80;4.70;;;23.40;88.80;;;;;;6349783;22;20062;-91
2021/01/21 07:35:39;;;;;;;7.40;4.00;;;23.40;89.40;;;;;;6348462;22;20239;-91
2021/01/21 07:38:06;;;;;;;7.85;4.90;;;23.40;88.90;;;;;;6348924;22;20047;-91
2021/01/21 07:40:48;;;;;;;6.80;4.57;;;23.40;89.30;;;;;;6350104;22;19998;-89
2021/01/21 07:43:15;;;;;;;9.20;4.80;;;23.30;90.00;;;;;;6350652;22;19994;-90
2021/01/21 07:45:44;;;;;;;10.02;5.25;;;23.30;89.50;;;;;;6348671;22;19990;-91
2021/01/21 07:48:24;;;;;;;7.05;4.95;;;23.30;88.60;;;;;;6348668;22;20041;-91
2021/01/21 07:50:52;;;;;;;8.10;4.38;;;23.40;88.50;;;;;;6350972;22;19991;-91
2021/01/21 07:53:27;;;;;;;9.32;4.68;;;23.40;89.30;;;;;;6352440;22;19995;-93
2021/01/21 07:56:02;;;;;;;5.93;4.10;;;23.40;88.90;;;;;;6348916;22;20056;-91
2021/01/21 07:58:35;;;;;;;7.47;4.47;;;23.40;89.10;;;;;;6348548;22;20283;-90
2021/01/21 08:01:06;;;;;;;7.38;4.47;;;23.40;89.70;;;;;;6348512;22;19995;-91
2021/01/21 08:03:38;;;;;;;7.05;4.53;;;23.40;90.10;;;;;;6349092;22;20040;-91
2021/01/21 08:06:25;;;;;;;8.70;4.20;;;23.40;89.30;;;;;;6348792;22;19990;-91
2021/01/21 08:08:57;;;;;;;9.35;5.10;;;23.30;89.50;;;;;;6348360;22;20261;-91
2021/01/21 08:11:25;;;;;;;7.07;4.32;;;23.30;89.20;;;;;;6350491;22;20021;-90
2021/01/21 08:13:58;;;;;;;9.02;4.10;;;23.30;88.80;;;;;;6348054;22;20010;-91
2021/01/21 08:16:25;;;;;;;7.22;4.57;;;23.30;89.30;;;;;;6348239;22;19990;-91
2021/01/21 08:19:00;;;;;;;7.60;4.95;;;23.30;88.80;;;;;;6348536;22;20005;-89
2021/01/21 08:21:28;;;;;;;7.18;4.60;;;23.40;89.30;;;;;;6351814;22;19987;-91
2021/01/21 08:23:58;;;;;;;7.20;4.53;;;23.40;89.10;;;;;;6352992;22;20042;-90
2021/01/21 08:26:27;;;;;;;7.05;4.60;;;23.40;88.80;;;;;;6353657;22;19991;-92
2021/01/21 08:28:54;;;;;;;8.18;4.35;;;23.40;89.10;;;;;;6351106;22;20287;-90
2021/01/21 08:31:37;;;;;;;5.97;4.00;;;23.40;89.10;;;;;;6352220;22;20309;-95
2021/01/21 08:34:07;;;;;;;7.07;4.68;;;23.40;88.90;;;;;;6351453;22;20009;-86
2021/01/21 08:37:07;;;;;;;9.02;4.75;;;23.40;88.30;;;;;;6350380;22;19995;-91
2021/01/21 08:39:51;;;;;;;7.13;4.40;;;23.30;89.50;;;;;;6282054;22;20247;-95
2021/01/21 08:42:18;;;;;;;6.20;4.45;;;23.30;89.70;;;;;;6350069;22;19999;-94
2021/01/21 08:44:45;;;;;;;7.78;4.50;;;23.30;89.90;;;;;;6348711;22;20010;-94
2021/01/21 08:47:11;;;;;;;7.97;4.63;;;23.20;89.90;;;;;;6350663;22;20034;-93
2021/01/21 08:49:38;;;;;;;9.00;4.45;;;23.20;90.10;;;;;;6349612;22;20001;-95
2021/01/21 08:52:10;;;;;;;6.47;4.90;;;23.20;90.20;;;;;;6323587;22;20314;-95
2021/01/21 08:54:37;;;;;;;6.63;4.00;;;23.20;90.30;;;;;;6348992;22;19995;-95
2021/01/21 08:57:11;;;;;;;8.50;4.38;;;23.20;89.50;;;;;;6349218;22;20183;-95
2021/01/21 08:59:42;;;;;;;6.22;4.65;;;23.20;89.50;;;;;;6348793;22;19995;-96
2021/01/21 09:02:12;;;;;;;;;;;23.20;89.30;;;;;;6350861;22;20176;-96
2021/01/21 09:04:39;;;;;;;6.40;4.50;;;23.20;90.30;;;;;;6349674;22;19895;-94
2021/01/21 09:07:08;;;;;;;7.38;4.63;;;23.20;88.50;;;;;;6349961;22;20291;-95
2021/01/21 09:09:40;;;;;;;7.07;4.60;;;23.20;89.50;;;;;;6349938;22;20018;-96
2021/01/21 09:12:18;;;;;;;8.73;5.43;;;23.10;90.30;;;;;;6351926;22;20010;-96
2021/01/21 09:14:59;;;;;;;6.25;4.57;;;23.00;90.40;;;;;;6351431;22;20018;-95
2021/01/21 09:17:26;;;;;;;7.75;5.00;;;23.00;90.30;;;;;;6351262;22;20002;-95
2021/01/21 09:19:53;;;;;;;10.75;6.22;;;23.00;90.00;;;;;;6350831;22;20097;-95
2021/01/21 09:22:22;;;;;;;51.47;9.43;;;23.10;90.30;;;;;;6351063;22;19998;-95
2021/01/21 09:25:00;;;;;;;18.25;6.85;;;23.10;89.80;;;;;;6350891;22;20009;-95
2021/01/21 09:27:28;;;;;;;8.70;5.10;;;23.10;90.50;;;;;;6351265;22;20014;-95
2021/01/21 09:29:58;;;;;;;112.78;18.67;;;22.90;91.00;;;;;;6351136;22;19998;-96
2021/01/21 09:32:36;;;;;;;30.02;7.22;;;22.90;91.40;;;;;;6351369;22;20003;-95
2021/01/21 09:35:08;;;;;;;20.73;6.78;;;23.00;90.80;;;;;;6351750;22;20297;-95
2021/01/21 09:37:40;;;;;;;16.33;6.40;;;23.00;90.50;;;;;;6352688;22;20066;-95
2021/01/21 09:40:09;;;;;;;20.15;5.68;;;23.00;90.70;;;;;;6351320;22;19998;-94
2021/01/21 09:42:36;;;;;;;14.15;5.88;;;23.00;90.40;;;;;;6350842;22;19995;-94
2021/01/21 09:45:10;;;;;;;15.07;5.43;;;23.00;90.40;;;;;;6353517;22;20029;-93
2021/01/21 09:47:37;;;;;;;9.75;5.30;;;23.00;90.20;;;;;;6350930;22;19999;-96
2021/01/21 09:50:08;;;;;;;13.20;5.25;;;23.00;90.40;;;;;;6351019;22;19994;-95
2021/01/21 09:52:35;;;;;;;12.40;6.32;;;22.90;90.70;;;;;;6350686;22;20002;-94
2021/01/21 09:55:06;;;;;;;11.05;5.72;;;22.90;90.30;;;;;;6351192;22;19994;-93
2021/01/21 09:57:33;;;;;;;7.78;5.30;;;22.90;90.60;;;;;;6350615;22;20288;-93
2021/01/21 10:00:00;;;;;;;10.32;6.28;;;22.90;90.40;;;;;;6350688;22;19995;-94
2021/01/21 10:02:26;;;;;;;8.82;5.45;;;22.80;90.60;;;;;;6352198;22;19998;-93
2021/01/21 10:04:53;;;;;;;8.82;5.82;;;22.70;90.90;;;;;;6351770;22;20287;-93
2021/01/21 10:07:20;;;;;;;9.85;5.05;;;22.60;91.10;;;;;;6350719;22;19994;-93
2021/01/21 10:09:47;;;;;;;9.35;5.50;;;22.60;91.20;;;;;;6351519;22;19995;-94
2021/01/21 10:12:16;;;;;;;12.98;5.40;;;22.60;91.20;;;;;;6355006;22;20028;-93
2021/01/21 10:14:55;;;;;;;8.27;5.22;;;22.50;91.50;;;;;;6347539;22;20167;-93
2021/01/21 10:17:23;;;;;;;10.73;6.03;;;22.50;91.30;;;;;;6349884;22;20307;-92
2021/01/21 10:19:52;;;;;;;12.18;5.47;;;22.50;91.60;;;;;;6350850;22;19995;-93
2021/01/21 10:22:20;;;;;;;8.25;5.45;;;22.50;91.50;;;;;;6323643;22;19999;-93
2021/01/21 10:24:47;;;;;;;12.25;5.78;;;22.40;91.60;;;;;;6349385;22;20016;-92
2021/01/21 10:27:19;;;;;;;10.90;5.47;;;22.50;91.40;;;;;;6324073;22;20010;-95
2021/01/21 10:29:47;;;;;;;11.32;5.82;;;22.50;91.40;;;;;;6352123;22;19999;-94
2021/01/21 10:32:16;;;;;;;10.57;5.88;;;22.50;91.10;;;;;;6323807;22;20062;-94
2021/01/21 10:34:43;;;;;;;8.82;5.35;;;22.50;91.50;;;;;;6350378;22;19995;-95
2021/01/21 10:37:09;;;;;;;8.35;5.18;;;22.50;91.20;;;;;;6349135;22;19998;-93
2021/01/21 10:39:37;;;;;;;9.00;5.10;;;22.40;91.20;;;;;;6350692;22;19998;-94
2021/01/21 10:42:05;;;;;;;7.55;5.15;;;22.40;91.30;;;;;;6349468;22;19998;-94
2021/01/21 10:44:33;;;;;;;7.57;5.72;;;22.40;91.30;;;;;;6349603;22;19990;-95
2021/01/21 10:47:03;;;;;;;11.43;5.28;;;22.40;91.20;;;;;;6351366;22;19994;-94
2021/01/21 10:49:33;;;;;;;10.68;5.38;;;22.40;91.30;;;;;;6351850;22;20232;-94
2021/01/21 10:52:00;;;;;;;9.57;5.63;;;22.30;91.40;;;;;;6350203;22;20015;-94
2021/01/21 10:54:26;;;;;;;10.15;5.80;;;22.30;91.60;;;;;;6351531;22;19998;-93
2021/01/21 10:56:54;;;;;;;7.97;5.18;;;22.20;91.80;;;;;;6349538;22;20060;-94
2021/01/21 10:59:21;;;;;;;8.65;5.85;;;22.30;91.70;;;;;;6350852;22;20172;-95
2021/01/21 11:01:48;;;;;;;7.70;4.90;;;22.30;92.00;;;;;;6351401;22;20015;-95
2021/01/21 11:04:33;;;;;;;9.70;5.80;;;22.30;91.70;;;;;;6350805;22;19995;-95
2021/01/21 11:07:03;;;;;;;11.00;6.03;;;22.30;91.90;;;;;;6377161;22;20098;-93
2021/01/21 11:09:35;;;;;;;7.20;4.93;;;22.30;92.20;;;;;;6355215;22;20033;-93
2021/01/21 11:12:03;;;;;;;;;;;22.30;92.40;;;;;;6357269;22;20006;-93
2021/01/21 11:14:34;;;;;;;9.20;5.40;;;22.20;92.30;;;;;;6326535;22;20099;-94
2021/01/21 11:17:02;;;;;;;13.75;6.40;;;22.30;92.50;;;;;;6353366;22;20002;-92
2021/01/21 11:19:33;;;;;;;9.68;5.65;;;22.30;92.60;;;;;;6355754;22;20220;-90
2021/01/21 11:21:59;;;;;;;8.98;5.68;;;22.50;92.40;;;;;;6352937;22;19991;-92
2021/01/21 11:24:26;;;;;;;8.45;5.38;;;22.60;92.40;;;;;;6350209;22;20302;-93
2021/01/21 11:26:53;;;;;;;11.48;5.70;;;22.70;92.30;;;;;;6323798;22;20062;-92
2021/01/21 11:29:25;;;;;;;15.75;6.47;;;22.80;91.80;;;;;;6352571;22;20012;-94
2021/01/21 11:32:14;;;;;;;9.43;6.22;;;22.90;91.60;;;;;;6351206;22;20062;-96
2021/01/21 11:34:45;;;;;;;10.73;6.65;;;22.90;91.00;;;;;;6271545;22;20014;-95
2021/01/21 11:37:14;;;;;;;9.45;5.90;;;23.00;90.50;;;;;;6293283;22;19999;-94
2021/01/21 11:39:42;;;;;;;12.20;6.50;;;23.10;90.30;;;;;;6295775;22;20007;-93
2021/01/21 11:42:10;;;;;;;13.57;6.80;;;23.30;90.30;;;;;;6326179;22;19991;-94
2021/01/21 11:44:38;;;;;;;10.48;6.65;;;23.30;89.70;;;;;;6302258;22;19987;-95
2021/01/21 11:47:07;;;;;;;10.75;6.05;;;23.40;89.60;;;;;;6295350;22;20067;-95
2021/01/21 11:49:43;;;;;;;11.85;6.32;;;23.40;88.90;;;;;;6292267;22;20014;-96
2021/01/21 11:52:31;;;;;;;11.07;6.10;;;23.50;89.20;;;;;;6294405;22;20326;-95
2021/01/21 11:55:37;;;;;;;9.93;5.72;;;23.60;88.60;;;;;;6249785;23;20012;-95
2021/01/21 11:58:21;;;;;;;10.43;5.72;;;23.70;88.50;;;;;;6249124;23;20004;-96
2021/01/21 12:00:49;;;;;;;13.93;6.13;;;23.80;87.90;;;;;;6215881;22;20012;-96
2021/01/21 12:03:48;;;;;;;12.68;6.10;;;23.80;88.10;;;;;;6240630;23;20018;-93
2021/01/21 12:06:29;;;;;;;9.35;5.45;;;23.90;87.60;;;;;;6202434;22;20003;-96
2021/01/21 12:09:06;;;;;;;14.43;5.32;;;24.10;87.60;;;;;;6327748;22;20003;-95
2021/01/21 12:11:36;;;;;;;12.13;5.28;;;24.30;87.30;;;;;;6297938;22;19991;-96
2021/01/21 12:14:03;;;;;;;9.55;6.00;;;24.40;87.10;;;;;;6318013;22;20028;-94
2021/01/21 12:16:36;;;;;;;8.40;5.40;;;24.50;86.80;;;;;;6292709;22;20005;-94
2021/01/21 12:19:03;;;;;;;11.82;5.20;;;24.60;86.70;;;;;;6293182;22;20003;-95
2021/01/21 12:21:34;;;;;;;12.85;5.25;;;24.80;86.10;;;;;;6292670;22;19995;-94
2021/01/21 12:27:24;;;;;;;18.75;6.80;;;25.10;85.00;;;;;;6321725;22;20057;-94
2021/01/21 12:29:53;;;;;;;16.60;7.93;;;25.40;84.40;;;;;;6292442;22;20014;-94
2021/01/21 12:32:23;;;;;;;18.80;11.25;;;25.50;84.00;;;;;;6292581;22;19999;-95
2021/01/21 12:35:04;;;;;;;21.15;11.77;;;25.60;83.20;;;;;;6293864;22;20003;-94
2021/01/21 12:37:31;;;;;;;14.07;6.75;;;25.70;83.10;;;;;;6291223;22;20006;-93
2021/01/21 12:39:59;;;;;;;14.00;6.70;;;25.80;82.10;;;;;;6342458;22;20009;-92
2021/01/21 12:42:26;;;;;;;13.88;5.93;;;26.00;82.00;;;;;;6355160;22;20002;-94
2021/01/21 12:45:12;;;;;;;18.77;6.88;;;26.30;80.80;;;;;;6359547;22;19990;-95
2021/01/21 12:47:41;;;;;;;9.95;5.38;;;26.50;81.20;;;;;;6331562;22;19998;-95
2021/01/21 12:50:16;;;;;;;6.28;3.80;;;26.80;79.70;;;;;;6334881;22;20007;-96
2021/01/21 12:53:08;;;;;;;9.93;4.55;;;26.80;79.40;;;;;;6358671;22;20003;-95
2021/01/21 12:55:42;;;;;;;8.05;3.65;;;26.80;79.70;;;;;;6331524;22;19994;-92
2021/01/21 12:58:10;;;;;;;10.45;4.20;;;26.90;79.30;;;;;;6304296;22;19995;-95
2021/01/21 13:00:36;;;;;;;7.75;3.65;;;27.00;80.50;;;;;;6302373;22;20048;-90
2021/01/21 13:03:30;;;;;;;8.50;3.75;;;27.10;79.90;;;;;;6332837;22;19995;-92
2021/01/21 13:05:56;;;;;;;7.80;4.22;;;27.30;78.50;;;;;;6340479;22;20003;-93
2021/01/21 13:08:25;;;;;;;9.35;3.83;;;27.60;79.40;;;;;;6337052;22;20002;-91
2021/01/21 13:10:54;;;;;;;5.95;3.47;;;28.00;78.20;;;;;;6331630;22;20321;-91
2021/01/21 13:13:28;;;;;;;7.78;3.10;;;28.30;76.30;;;;;;6330296;22;19999;-90
2021/01/21 13:15:55;;;;;;;7.45;2.80;;;28.70;75.60;;;;;;6333529;22;20070;-92
2021/01/21 13:18:24;;;;;;;8.20;3.97;;;28.70;73.70;;;;;;6330842;22;20037;-93
2021/01/21 13:20:54;;;;;;;11.05;4.00;;;28.90;74.70;;;;;;6331348;22;20105;-91
2021/01/21 13:23:38;;;;;;;9.35;3.88;;;29.00;75.80;;;;;;6313254;22;19998;-93
2021/01/21 13:26:06;;;;;;;5.60;3.38;;;28.90;75.30;;;;;;6308234;22;20029;-92
2021/01/21 13:28:35;;;;;;;6.75;3.47;;;29.10;74.90;;;;;;6354574;22;20015;-93
2021/01/21 13:31:02;;;;;;;7.00;3.30;;;29.10;75.90;;;;;;6358936;22;19991;-92
2021/01/21 13:33:28;;;;;;;6.45;3.22;;;28.90;76.50;;;;;;6357279;22;20009;-90
2021/01/21 13:35:55;;;;;;;8.10;3.20;;;29.10;75.00;;;;;;6357697;22;20067;-93
2021/01/21 13:38:29;;;;;;;6.68;3.17;;;29.10;74.00;;;;;;6361535;22;19995;-91
2021/01/21 13:41:04;;;;;;;4.80;2.97;;;29.00;73.90;;;;;;6359609;22;19990;-92
2021/01/21 13:43:37;;;;;;;6.57;3.03;;;29.00;72.80;;;;;;6356807;22;20025;-93
2021/01/21 13:46:38;;;;;;;5.72;2.90;;;29.00;73.10;;;;;;6357445;22;20323;-93
2021/01/21 13:49:23;;;;;;;7.32;3.00;;;29.30;73.90;;;;;;6359211;22;20025;-93
2021/01/21 13:52:11;;;;;;;5.93;3.30;;;29.30;72.60;;;;;;6325909;22;20083;-92
2021/01/21 13:54:49;;;;;;;9.32;3.00;;;29.40;73.10;;;;;;6299500;22;20004;-94
2021/01/21 13:57:50;;;;;;;6.82;2.40;;;29.40;73.00;;;;;;6303827;22;20007;-91
2021/01/21 14:00:45;;;;;;;7.85;3.00;;;30.30;69.20;;;;;;6285852;22;20007;-94
2021/01/21 14:03:16;;;;;;;7.78;2.28;;;31.00;69.60;;;;;;6297245;22;20011;-92